Philadelphia, Pennsylvania
Traffic Map
Current Weather Conditions
Philadelphia, Pennsylvania
Clear
Clear
23°
Feels Like: 23°
Wind Chill: 23° Ceiling: Unl
Heat Index: 23° Visibility: 7mi
Dew Point: 21° Wind: 5mph
Humidity: 87% Direction: 250° (WSW)
Pressure: 30.02in Gusts: 0mph
Raw Report DataKPHL 010954Z 25004KT 7SM CLR 23/21 A3002 RMK AO2 SLP166 T02280206 $
Traffic Incident Summary
Active as of:
Severity:
Category:
InformationThere was an issue retrieving the traffic information for this location. Please try a different location or try again shortly.
Advertisements
Track Severe Weather on mobile